Time;durP1;ratioP1;P1;durP2;ratioP2;P2;SDS_P1;SDS_P2;PMS_P1;PMS_P2;Temp;Humidity;BMP_temperature;BMP_pressure;BME280_temperature;BME280_humidity;BME280_pressure;Samples;Min_cycle;Max_cycle;Signal;HPM_P1;HPM_P2
2023/04/26 00:02:10;;;;;;;13.07;3.38;;;6.30;89.30;;;;;;4936907;29;20128;-87
2023/04/26 00:04:39;;;;;;;12.07;3.25;;;6.20;89.50;;;;;;4936519;29;20102;-87
2023/04/26 00:07:05;;;;;;;10.85;3.25;;;6.20;90.00;;;;;;4936164;29;20165;-87
2023/04/26 00:09:31;;;;;;;13.35;3.40;;;6.20;90.30;;;;;;4936688;29;20027;-87
2023/04/26 00:11:57;;;;;;;9.65;3.00;;;6.20;90.50;;;;;;4934689;29;20516;-89
2023/04/26 00:14:22;;;;;;;6.75;2.95;;;6.20;90.70;;;;;;4936130;29;20031;-89
2023/04/26 00:16:48;;;;;;;11.82;3.42;;;6.20;90.90;;;;;;4934923;29;20035;-88
2023/04/26 00:19:14;;;;;;;14.52;3.15;;;6.20;91.10;;;;;;4934863;29;20449;-88
2023/04/26 00:21:40;;;;;;;8.90;2.88;;;6.20;91.30;;;;;;4935080;29;20032;-88
2023/04/26 00:24:07;;;;;;;7.65;3.05;;;6.20;91.50;;;;;;4934727;29;20090;-88
2023/04/26 00:26:33;;;;;;;11.35;2.70;;;6.20;91.70;;;;;;4934695;29;20024;-88
2023/04/26 00:28:59;;;;;;;9.90;3.03;;;6.20;92.00;;;;;;4934912;29;20055;-87
2023/04/26 00:31:25;;;;;;;8.75;3.03;;;6.10;92.20;;;;;;4935962;29;20031;-88
2023/04/26 00:33:51;;;;;;;8.25;2.72;;;6.10;92.40;;;;;;4950627;29;20028;-89
2023/04/26 00:36:18;;;;;;;9.77;2.80;;;6.10;92.70;;;;;;4935173;29;20540;-89
2023/04/26 00:38:44;;;;;;;8.35;2.47;;;6.00;92.90;;;;;;4938680;29;20040;-88
2023/04/26 00:41:10;;;;;;;10.68;2.80;;;6.00;93.20;;;;;;4922789;29;20225;-88
2023/04/26 00:43:36;;;;;;;12.88;3.00;;;6.00;93.50;;;;;;4938548;29;20071;-88
2023/04/26 00:46:02;;;;;;;11.65;2.78;;;6.00;93.70;;;;;;4939768;29;20020;-88
2023/04/26 00:48:29;;;;;;;9.60;2.97;;;5.90;93.90;;;;;;4938484;29;20380;-87
2023/04/26 00:50:55;;;;;;;12.35;2.70;;;5.80;94.10;;;;;;4922556;29;20079;-88
2023/04/26 00:53:22;;;;;;;10.93;3.17;;;5.80;94.50;;;;;;4938097;29;20549;-88
2023/04/26 00:55:50;;;;;;;9.15;2.70;;;5.80;94.80;;;;;;4938778;29;20047;-87
2023/04/26 00:58:17;;;;;;;15.93;3.88;;;5.80;95.20;;;;;;4922287;29;20118;-88
2023/04/26 01:00:43;;;;;;;10.02;3.00;;;5.80;95.50;;;;;;4922529;29;20032;-88
2023/04/26 01:03:08;;;;;;;9.05;2.97;;;5.80;95.90;;;;;;4938307;29;20117;-87
2023/04/26 01:05:35;;;;;;;11.60;3.65;;;5.80;96.30;;;;;;4938392;29;20023;-88
2023/04/26 01:08:03;;;;;;;7.88;2.90;;;5.80;96.40;;;;;;4939557;29;20028;-88
2023/04/26 01:10:31;;;;;;;10.52;3.38;;;5.80;96.60;;;;;;4937856;29;20063;-89
2023/04/26 01:12:57;;;;;;;13.63;3.05;;;5.80;96.70;;;;;;4938379;29;20050;-89
2023/04/26 01:15:24;;;;;;;11.48;3.03;;;5.70;97.00;;;;;;4922333;29;20130;-88
2023/04/26 01:17:51;;;;;;;8.85;3.08;;;5.70;97.30;;;;;;4937725;29;20473;-88
2023/04/26 01:20:16;;;;;;;8.32;2.95;;;5.70;97.60;;;;;;4937855;29;20020;-88
2023/04/26 01:22:42;;;;;;;9.43;3.10;;;5.60;97.80;;;;;;4939142;29;20082;-88
2023/04/26 01:25:11;;;;;;;8.95;3.28;;;5.60;98.20;;;;;;4938308;29;20123;-88
2023/04/26 01:27:37;;;;;;;11.10;3.38;;;5.50;98.40;;;;;;4938241;29;20080;-88
2023/04/26 01:30:03;;;;;;;10.68;3.13;;;5.50;98.70;;;;;;4937920;29;20034;-88
2023/04/26 01:32:29;;;;;;;12.85;4.07;;;5.50;98.90;;;;;;4937786;29;20034;-88
2023/04/26 01:34:55;;;;;;;9.55;3.20;;;5.40;99.10;;;;;;4937668;29;20104;-88
2023/04/26 01:37:21;;;;;;;9.25;3.33;;;5.40;99.40;;;;;;4939328;29;20082;-88
2023/04/26 01:39:46;;;;;;;9.90;3.70;;;5.40;99.70;;;;;;4937871;29;20131;-87
2023/04/26 01:42:12;;;;;;;7.53;2.75;;;5.30;99.90;;;;;;4938431;29;20087;-88
2023/04/26 01:44:38;;;;;;;15.48;3.10;;;5.30;99.90;;;;;;4953410;29;20091;-88
2023/04/26 01:47:05;;;;;;;16.30;4.22;;;5.30;99.90;;;;;;4921988;29;20027;-88
2023/04/26 01:49:31;;;;;;;8.80;3.83;;;5.20;99.90;;;;;;4936923;29;20123;-87
2023/04/26 01:51:58;;;;;;;10.95;3.22;;;5.20;99.90;;;;;;4953465;29;20048;-88
2023/04/26 01:54:24;;;;;;;7.97;3.00;;;5.20;99.90;;;;;;4938544;29;20370;-88
2023/04/26 01:56:50;;;;;;;10.68;3.83;;;5.10;99.90;;;;;;4938438;29;20030;-88
2023/04/26 01:59:16;;;;;;;11.35;3.38;;;5.10;99.90;;;;;;4938248;29;20035;-87
2023/04/26 02:01:44;;;;;;;8.65;3.08;;;5.10;99.90;;;;;;4937316;29;20119;-88
2023/04/26 02:04:10;;;;;;;9.88;3.28;;;5.10;99.90;;;;;;4921239;29;20028;-87
2023/04/26 02:06:36;;;;;;;14.32;3.67;;;5.10;99.90;;;;;;4938460;29;20030;-87
2023/04/26 02:09:03;;;;;;;12.25;3.67;;;5.10;99.90;;;;;;4936932;29;20024;-87
2023/04/26 02:11:29;;;;;;;11.25;3.40;;;5.10;99.90;;;;;;4936593;29;20501;-88
2023/04/26 02:13:55;;;;;;;4.80;3.08;;;5.00;99.90;;;;;;4936987;29;20055;-88
2023/04/26 02:16:21;;;;;;;11.68;3.10;;;4.90;99.90;;;;;;4920854;29;20059;-87
2023/04/26 02:18:48;;;;;;;8.15;2.97;;;5.00;99.90;;;;;;4936803;29;20036;-88
2023/04/26 02:21:16;;;;;;;11.20;3.35;;;5.00;99.90;;;;;;4937044;29;20023;-88
2023/04/26 02:23:42;;;;;;;13.05;3.40;;;4.90;99.90;;;;;;4936825;29;20493;-88
2023/04/26 02:26:07;;;;;;;11.63;3.78;;;4.90;99.90;;;;;;4952971;29;20028;-88
2023/04/26 02:28:33;;;;;;;8.45;3.33;;;4.90;99.90;;;;;;4936810;29;20039;-88
2023/04/26 02:31:00;;;;;;;9.98;2.90;;;4.80;99.90;;;;;;4938163;29;20035;-88
2023/04/26 02:33:26;;;;;;;8.60;3.33;;;4.80;99.90;;;;;;4936857;29;20167;-87
2023/04/26 02:35:52;;;;;;;7.50;3.17;;;4.70;99.90;;;;;;4937162;29;20478;-88
2023/04/26 02:38:17;;;;;;;11.25;3.92;;;4.70;99.90;;;;;;4937239;29;20167;-88
2023/04/26 02:40:43;;;;;;;7.88;3.00;;;4.70;99.90;;;;;;4943613;29;20035;-87
2023/04/26 02:43:09;;;;;;;12.27;3.60;;;4.60;99.90;;;;;;4943678;29;20134;-89
2023/04/26 02:45:41;;;;;;;13.50;3.22;;;4.60;99.90;;;;;;4942815;29;20543;-87
2023/04/26 02:48:07;;;;;;;9.13;3.17;;;4.50;99.90;;;;;;4939283;29;20053;-87
2023/04/26 02:50:32;;;;;;;10.63;3.58;;;4.50;99.90;;;;;;4937463;29;20031;-88
2023/04/26 02:52:58;;;;;;;9.32;3.13;;;4.50;99.90;;;;;;4937098;29;20103;-88
2023/04/26 02:55:23;;;;;;;6.63;3.30;;;4.40;99.90;;;;;;4936898;29;20548;-88
2023/04/26 02:57:49;;;;;;;10.93;3.45;;;4.40;99.90;;;;;;4936890;29;20063;-87
2023/04/26 03:00:15;;;;;;;6.90;3.72;;;4.30;99.90;;;;;;4935230;29;20075;-89
2023/04/26 03:02:41;;;;;;;7.93;3.88;;;4.40;99.90;;;;;;4937808;29;20034;-88
2023/04/26 03:05:08;;;;;;;8.68;3.58;;;4.30;99.90;;;;;;4937739;29;20068;-88
2023/04/26 03:07:34;;;;;;;9.82;3.83;;;4.30;99.90;;;;;;4920678;29;20556;-87
2023/04/26 03:10:00;;;;;;;8.63;3.20;;;4.30;99.90;;;;;;4936242;29;20071;-87
2023/04/26 03:12:27;;;;;;;12.07;3.33;;;4.20;99.90;;;;;;4936469;29;20051;-87
2023/04/26 03:14:52;;;;;;;8.63;3.60;;;4.20;99.90;;;;;;4936870;29;20122;-87
2023/04/26 03:17:18;;;;;;;12.23;3.50;;;4.20;99.90;;;;;;4936737;29;20090;-88
2023/04/26 03:19:44;;;;;;;8.50;3.30;;;4.20;99.90;;;;;;4921336;29;20036;-88
2023/04/26 03:22:14;;;;;;;7.05;3.30;;;4.10;99.90;;;;;;4935656;29;20042;-87
2023/04/26 03:24:41;;;;;;;7.68;3.30;;;4.20;99.90;;;;;;4934816;29;20520;-88
2023/04/26 03:27:07;;;;;;;6.63;3.42;;;4.10;99.90;;;;;;4934726;29;20031;-87
2023/04/26 03:29:33;;;;;;;9.35;3.60;;;4.10;99.90;;;;;;4919151;29;20038;-88
2023/04/26 03:31:59;;;;;;;10.48;3.50;;;4.10;99.90;;;;;;4934876;29;20106;-88
2023/04/26 03:34:26;;;;;;;12.50;3.63;;;4.10;99.90;;;;;;4932581;29;20062;-88
2023/04/26 03:36:51;;;;;;;11.98;3.80;;;4.10;99.90;;;;;;4935049;29;20345;-87
2023/04/26 03:39:17;;;;;;;10.85;3.00;;;4.00;99.90;;;;;;4934690;29;20504;-87
2023/04/26 03:41:43;;;;;;;8.60;3.72;;;4.00;99.90;;;;;;4935241;29;20066;-89
2023/04/26 03:44:08;;;;;;;13.55;4.82;;;3.90;99.90;;;;;;4935096;29;20028;-87
2023/04/26 03:46:34;;;;;;;15.13;3.85;;;3.90;99.90;;;;;;4935212;29;20059;-88
2023/04/26 03:49:00;;;;;;;9.32;3.75;;;3.90;99.90;;;;;;4935335;29;20032;-87
2023/04/26 03:51:27;;;;;;;8.63;4.28;;;3.90;99.90;;;;;;4919478;29;20359;-87
2023/04/26 03:53:53;;;;;;;7.15;3.75;;;3.90;99.90;;;;;;4936281;29;20040;-88
2023/04/26 03:56:18;;;;;;;7.78;3.47;;;3.90;99.90;;;;;;4935047;29;20134;-88
2023/04/26 03:58:45;;;;;;;16.80;4.13;;;3.90;99.90;;;;;;4935532;29;20118;-87
2023/04/26 04:01:10;;;;;;;11.48;4.28;;;3.90;99.90;;;;;;4920771;29;20099;-88
2023/04/26 04:03:36;;;;;;;8.18;3.97;;;3.90;99.90;;;;;;4936773;29;20031;-87
2023/04/26 04:06:02;;;;;;;10.93;4.00;;;3.90;99.90;;;;;;4920331;29;20032;-88
2023/04/26 04:08:27;;;;;;;19.55;4.40;;;3.90;99.90;;;;;;4936303;29;20039;-88
2023/04/26 04:10:53;;;;;;;14.35;4.47;;;3.80;99.90;;;;;;4935329;29;20058;-87
2023/04/26 04:13:18;;;;;;;13.60;4.72;;;3.80;99.90;;;;;;4935193;29;20032;-88
2023/04/26 04:15:44;;;;;;;9.20;4.18;;;3.80;99.90;;;;;;4934603;29;20402;-88
2023/04/26 04:18:10;;;;;;;9.95;4.15;;;3.80;99.90;;;;;;4934692;29;20044;-88
2023/04/26 04:20:35;;;;;;;12.98;4.00;;;3.70;99.90;;;;;;4918700;29;20027;-87
2023/04/26 04:23:03;;;;;;;7.15;3.70;;;3.70;99.90;;;;;;4934550;29;20039;-87
2023/04/26 04:25:29;;;;;;;13.00;4.57;;;3.70;99.90;;;;;;4918601;29;20039;-87
2023/04/26 04:27:55;;;;;;;8.13;3.83;;;3.70;99.90;;;;;;4918739;29;20034;-88
2023/04/26 04:30:21;;;;;;;9.73;4.07;;;3.70;99.90;;;;;;4934407;29;20168;-87
2023/04/26 04:32:47;;;;;;;11.05;4.35;;;3.70;99.90;;;;;;4933979;29;20097;-87
2023/04/26 04:35:13;;;;;;;13.15;4.13;;;3.70;99.90;;;;;;4917968;29;20481;-87
2023/04/26 04:37:38;;;;;;;11.63;4.25;;;3.70;99.90;;;;;;4933595;29;20063;-87
2023/04/26 04:40:05;;;;;;;13.23;3.97;;;3.70;99.90;;;;;;4933743;29;20107;-87
2023/04/26 04:42:31;;;;;;;11.90;4.35;;;3.70;99.90;;;;;;4933778;29;20028;-87
2023/04/26 04:44:58;;;;;;;11.95;4.35;;;3.70;99.90;;;;;;4933536;29;20100;-88
2023/04/26 04:47:24;;;;;;;10.30;3.95;;;3.60;99.90;;;;;;4933586;29;20035;-88
2023/04/26 04:49:50;;;;;;;13.20;4.20;;;3.70;99.90;;;;;;4933815;29;20023;-87
2023/04/26 04:52:16;;;;;;;12.38;3.65;;;3.60;99.90;;;;;;4935008;29;20032;-87
2023/04/26 04:54:42;;;;;;;17.35;4.38;;;3.60;99.90;;;;;;4933776;29;20030;-88
2023/04/26 04:57:07;;;;;;;10.60;4.10;;;3.60;99.90;;;;;;4934594;29;20031;-87
2023/04/26 04:59:33;;;;;;;9.65;3.97;;;3.50;99.90;;;;;;4933686;29;20035;-88
2023/04/26 05:01:59;;;;;;;8.80;4.88;;;3.50;99.90;;;;;;4933692;29;20433;-87
2023/04/26 05:04:24;;;;;;;10.55;3.70;;;3.50;99.90;;;;;;4918021;29;20099;-87
2023/04/26 05:06:51;;;;;;;10.75;3.90;;;3.50;99.90;;;;;;4933939;29;20035;-86
2023/04/26 05:09:16;;;;;;;12.13;4.22;;;3.50;99.90;;;;;;4918397;29;20024;-87
2023/04/26 05:11:42;;;;;;;10.43;4.55;;;3.50;99.90;;;;;;4934078;29;20052;-87
2023/04/26 05:14:08;;;;;;;13.48;4.57;;;3.50;99.90;;;;;;4933673;29;20405;-88
2023/04/26 05:16:33;;;;;;;17.23;4.85;;;3.50;99.90;;;;;;4933970;29;20032;-88
2023/04/26 05:18:59;;;;;;;12.40;4.45;;;3.40;99.90;;;;;;4933663;29;20047;-88
2023/04/26 05:21:24;;;;;;;11.18;4.07;;;3.40;99.90;;;;;;4918296;29;20110;-87
2023/04/26 05:23:50;;;;;;;13.25;4.65;;;3.40;99.90;;;;;;4934896;29;20043;-87
2023/04/26 05:26:16;;;;;;;10.18;4.35;;;3.40;99.90;;;;;;4937034;29;20027;-88
2023/04/26 05:28:43;;;;;;;11.60;4.25;;;3.40;99.90;;;;;;4937199;29;20042;-87
2023/04/26 05:31:09;;;;;;;9.40;4.10;;;3.40;99.90;;;;;;4938808;29;20059;-87
2023/04/26 05:33:35;;;;;;;11.82;4.10;;;3.30;99.90;;;;;;4936918;29;20031;-87
2023/04/26 05:36:01;;;;;;;13.52;4.90;;;3.40;99.90;;;;;;4938503;29;20106;-86
2023/04/26 05:38:27;;;;;;;11.95;4.93;;;3.30;99.90;;;;;;4936926;29;20063;-87
2023/04/26 05:40:52;;;;;;;11.88;4.75;;;3.30;99.90;;;;;;4937189;29;20028;-87
2023/04/26 05:43:18;;;;;;;13.85;4.72;;;3.30;99.90;;;;;;4938394;29;20031;-87
2023/04/26 05:45:54;;;;;;;9.48;4.63;;;3.30;99.90;;;;;;4920911;29;20028;-87
2023/04/26 05:48:22;;;;;;;21.05;6.15;;;3.30;99.90;;;;;;4937332;29;20058;-87
2023/04/26 05:50:48;;;;;;;16.20;5.20;;;3.30;99.90;;;;;;4938602;29;20110;-87
2023/04/26 05:53:14;;;;;;;10.13;4.63;;;3.30;99.90;;;;;;4937991;29;20035;-87
2023/04/26 05:55:43;;;;;;;8.75;4.63;;;3.30;99.90;;;;;;4936975;29;20067;-87
2023/04/26 05:58:09;;;;;;;10.15;4.70;;;3.30;99.90;;;;;;4936207;29;20023;-88
2023/04/26 06:00:36;;;;;;;10.25;5.05;;;3.30;99.90;;;;;;4936059;29;20032;-87
2023/04/26 06:03:02;;;;;;;8.98;4.63;;;3.40;99.90;;;;;;4920694;29;20054;-87
2023/04/26 06:05:27;;;;;;;10.93;5.05;;;3.40;99.90;;;;;;4936502;29;20134;-88
2023/04/26 06:07:53;;;;;;;14.35;4.78;;;3.30;99.90;;;;;;4936246;29;20047;-87
2023/04/26 06:10:19;;;;;;;13.10;4.70;;;3.40;99.90;;;;;;4936095;29;20026;-88
2023/04/26 06:12:46;;;;;;;14.85;4.75;;;3.30;99.90;;;;;;4936150;29;20062;-87
2023/04/26 06:15:12;;;;;;;16.25;5.15;;;3.30;99.90;;;;;;4936034;29;20020;-88
2023/04/26 06:17:39;;;;;;;12.90;4.75;;;3.30;99.90;;;;;;4935790;29;20043;-88
2023/04/26 06:20:05;;;;;;;14.43;5.45;;;3.30;99.90;;;;;;4935950;29;20028;-87
2023/04/26 06:22:31;;;;;;;11.77;5.35;;;3.30;99.90;;;;;;4935707;29;20028;-88
2023/04/26 06:24:56;;;;;;;8.57;4.57;;;3.40;99.90;;;;;;4935706;29;20057;-88
2023/04/26 06:27:22;;;;;;;15.95;5.05;;;3.40;99.90;;;;;;4935814;29;20585;-88
2023/04/26 06:29:48;;;;;;;11.20;5.15;;;3.50;99.90;;;;;;4936132;29;20035;-88
2023/04/26 06:32:13;;;;;;;12.77;5.45;;;3.50;99.90;;;;;;4919793;29;20020;-88
2023/04/26 06:34:39;;;;;;;9.98;5.20;;;3.50;99.90;;;;;;4935403;29;20028;-88
2023/04/26 06:37:05;;;;;;;13.98;4.80;;;3.70;99.90;;;;;;4936804;29;20023;-87
2023/04/26 06:39:34;;;;;;;14.73;5.53;;;3.70;99.90;;;;;;4936546;29;20091;-88
2023/04/26 06:42:00;;;;;;;22.98;6.07;;;3.80;99.90;;;;;;4919920;29;20023;-87
2023/04/26 06:44:26;;;;;;;13.02;5.20;;;3.90;99.90;;;;;;4936638;29;20024;-87
2023/04/26 06:46:55;;;;;;;16.33;5.35;;;3.90;99.90;;;;;;4935470;29;20028;-88
2023/04/26 06:49:21;;;;;;;14.95;5.43;;;4.00;99.90;;;;;;4936999;29;20031;-88
2023/04/26 06:51:47;;;;;;;15.10;6.50;;;4.10;99.90;;;;;;4936836;29;20031;-89
2023/04/26 06:54:13;;;;;;;11.80;5.10;;;4.10;99.90;;;;;;4937727;29;20036;-89
2023/04/26 06:56:39;;;;;;;11.35;5.05;;;4.20;99.90;;;;;;4921750;29;20171;-89
2023/04/26 06:59:05;;;;;;;11.93;4.93;;;4.30;99.90;;;;;;4937242;29;20039;-89
2023/04/26 07:01:32;;;;;;;13.73;5.85;;;4.30;99.90;;;;;;4920748;29;20027;-88
2023/04/26 07:04:02;;;;;;;15.90;5.68;;;4.40;99.90;;;;;;4936553;29;20046;-88
2023/04/26 07:06:28;;;;;;;11.60;5.53;;;4.50;99.90;;;;;;4934672;29;20541;-88
2023/04/26 07:08:54;;;;;;;10.70;5.50;;;4.60;99.90;;;;;;4926026;29;20032;-88
2023/04/26 07:11:20;;;;;;;18.38;6.20;;;4.70;99.90;;;;;;4927204;29;20139;-89
2023/04/26 07:13:46;;;;;;;13.25;5.30;;;4.80;99.90;;;;;;4913750;29;20024;-88
2023/04/26 07:16:11;;;;;;;17.60;6.38;;;4.90;99.90;;;;;;4933041;29;20035;-89
2023/04/26 07:18:39;;;;;;;15.15;5.40;;;5.00;99.90;;;;;;4931786;29;20133;-88
2023/04/26 07:21:05;;;;;;;16.15;6.25;;;5.00;99.90;;;;;;4922066;29;20516;-88
2023/04/26 07:23:31;;;;;;;15.07;5.85;;;5.10;99.90;;;;;;4926860;29;20027;-88
2023/04/26 07:25:57;;;;;;;9.82;5.45;;;5.10;99.90;;;;;;4925101;29;20533;-88
2023/04/26 07:28:23;;;;;;;21.55;5.20;;;5.20;99.90;;;;;;4934118;29;20142;-88
2023/04/26 07:30:48;;;;;;;17.30;5.20;;;5.20;99.90;;;;;;4935842;29;20031;-88
2023/04/26 07:33:14;;;;;;;12.35;4.65;;;5.30;99.90;;;;;;4935599;29;20031;-87
2023/04/26 07:35:41;;;;;;;11.07;4.70;;;5.40;99.90;;;;;;4935764;29;20028;-88
2023/04/26 07:38:08;;;;;;;16.48;5.55;;;5.50;99.90;;;;;;4935323;29;20059;-90
2023/04/26 07:40:34;;;;;;;8.63;4.85;;;5.70;99.90;;;;;;4935270;29;20198;-89
2023/04/26 07:42:59;;;;;;;12.48;5.70;;;5.70;99.90;;;;;;4920487;29;20118;-92
2023/04/26 07:45:25;;;;;;;14.80;4.82;;;5.90;99.90;;;;;;4934932;29;20164;-89
2023/04/26 07:47:51;;;;;;;15.85;6.30;;;6.00;99.90;;;;;;4933971;29;20027;-90
2023/04/26 07:50:17;;;;;;;14.68;6.07;;;6.10;99.90;;;;;;4918836;29;20032;-90
2023/04/26 07:52:42;;;;;;;13.50;5.63;;;6.20;99.90;;;;;;4920708;29;20027;-90
2023/04/26 07:55:08;;;;;;;14.80;5.75;;;6.30;99.90;;;;;;4934586;29;20032;-90
2023/04/26 07:57:34;;;;;;;14.60;6.35;;;6.40;99.90;;;;;;4932431;29;20020;-88
2023/04/26 08:00:00;;;;;;;17.00;6.38;;;6.50;99.90;;;;;;4919810;29;20091;-88
2023/04/26 08:02:26;;;;;;;19.50;6.53;;;6.70;99.90;;;;;;4934785;29;20076;-89
2023/04/26 08:04:54;;;;;;;18.67;6.55;;;6.80;99.90;;;;;;4936397;29;20027;-89
2023/04/26 08:07:20;;;;;;;13.95;6.55;;;6.80;99.90;;;;;;4931803;29;20030;-90
2023/04/26 08:09:46;;;;;;;15.10;6.68;;;6.90;99.90;;;;;;4920649;29;20047;-88
2023/04/26 08:12:12;;;;;;;13.98;5.72;;;7.10;99.90;;;;;;4937266;29;20055;-88
2023/04/26 08:14:38;;;;;;;13.43;6.63;;;7.20;99.90;;;;;;4932208;29;20028;-89
2023/04/26 08:17:05;;;;;;;16.13;6.47;;;7.30;99.90;;;;;;4935811;29;20028;-88
2023/04/26 08:19:32;;;;;;;15.32;7.03;;;7.40;99.90;;;;;;4934333;29;20055;-89
2023/04/26 08:21:58;;;;;;;15.52;6.55;;;7.50;99.90;;;;;;4931048;29;20023;-88
2023/04/26 08:24:24;;;;;;;15.80;6.25;;;7.60;99.90;;;;;;4934713;29;20028;-89
2023/04/26 08:26:49;;;;;;;17.38;6.75;;;7.70;99.90;;;;;;4933833;29;20028;-88
2023/04/26 08:29:16;;;;;;;13.18;6.32;;;7.80;99.90;;;;;;4938329;29;20020;-89
2023/04/26 08:31:41;;;;;;;10.63;5.93;;;7.90;99.90;;;;;;4939848;29;20020;-87
2023/04/26 08:34:12;;;;;;;18.23;6.72;;;8.00;99.90;;;;;;4938340;29;20032;-87
2023/04/26 08:36:38;;;;;;;16.60;6.57;;;8.10;99.90;;;;;;4936566;29;20024;-87
2023/04/26 08:39:04;;;;;;;15.38;7.25;;;8.10;99.90;;;;;;4939320;29;20106;-88
2023/04/26 08:41:41;;;;;;;11.57;5.97;;;8.30;99.90;;;;;;4919461;29;20023;-88
2023/04/26 08:44:07;;;;;;;20.58;7.72;;;8.30;99.90;;;;;;4935070;29;20043;-89
2023/04/26 08:47:02;;;;;;;12.93;5.97;;;8.40;99.90;;;;;;4934353;29;20046;-91
2023/04/26 08:49:28;;;;;;;13.40;5.68;;;8.50;99.90;;;;;;4925016;29;20063;-87
2023/04/26 08:51:56;;;;;;;13.55;6.43;;;8.60;99.90;;;;;;4930370;29;20047;-87
2023/04/26 08:54:24;;;;;;;11.90;5.57;;;8.80;99.90;;;;;;4931428;29;20366;-87
2023/04/26 08:56:52;;;;;;;12.90;5.78;;;8.90;99.90;;;;;;4935912;29;20024;-89
2023/04/26 08:59:19;;;;;;;13.88;5.82;;;9.10;99.90;;;;;;4938137;29;20043;-87
2023/04/26 09:01:45;;;;;;;12.85;6.10;;;9.20;99.90;;;;;;4970907;28;20071;-88
2023/04/26 09:04:11;;;;;;;16.02;6.85;;;9.40;99.90;;;;;;4937240;29;20035;-88
2023/04/26 09:06:37;;;;;;;13.68;5.85;;;9.60;99.90;;;;;;4937631;29;20148;-89
2023/04/26 09:09:06;;;;;;;17.17;6.25;;;9.80;99.90;;;;;;4937409;29;20060;-88
2023/04/26 09:12:00;;;;;;;13.80;5.90;;;10.00;99.90;;;;;;4937828;29;20103;-87
2023/04/26 09:14:26;;;;;;;12.00;5.35;;;10.20;99.10;;;;;;4934072;29;20425;-88
2023/04/26 09:16:52;;;;;;;11.13;5.38;;;10.30;98.40;;;;;;4938600;29;20024;-89
2023/04/26 09:19:51;;;;;;;14.70;5.43;;;10.50;97.50;;;;;;4938668;29;20433;-88
2023/04/26 09:22:31;;;;;;;11.85;5.30;;;10.70;96.70;;;;;;4886799;29;20045;-88
2023/04/26 09:24:56;;;;;;;9.35;4.82;;;10.90;95.80;;;;;;4938683;29;20121;-89
2023/04/26 09:27:35;;;;;;;11.68;4.70;;;11.00;94.80;;;;;;4936973;29;20059;-88
2023/04/26 09:30:17;;;;;;;10.40;3.63;;;11.20;94.00;;;;;;4937323;29;20474;-88
2023/04/26 09:32:55;;;;;;;12.52;4.25;;;11.30;92.80;;;;;;4938238;29;20111;-89
2023/04/26 09:35:35;;;;;;;10.20;4.07;;;11.50;91.60;;;;;;4937393;29;20090;-88
2023/04/26 09:38:03;;;;;;;12.67;4.07;;;11.70;90.90;;;;;;4938322;29;20071;-90
2023/04/26 09:40:31;;;;;;;8.73;4.05;;;11.80;89.50;;;;;;4937154;29;20039;-89
2023/04/26 09:43:00;;;;;;;10.50;3.78;;;12.00;87.30;;;;;;4920176;29;20020;-89
2023/04/26 09:45:28;;;;;;;9.25;3.88;;;12.00;84.60;;;;;;4937886;29;20032;-89
2023/04/26 09:47:54;;;;;;;13.23;4.43;;;12.20;83.10;;;;;;4921415;29;20118;-88
2023/04/26 09:50:30;;;;;;;15.77;4.40;;;12.20;82.00;;;;;;4937731;29;20031;-89
2023/04/26 09:52:56;;;;;;;11.13;4.50;;;12.30;81.10;;;;;;4937838;29;20023;-89
2023/04/26 09:55:27;;;;;;;8.48;3.92;;;12.50;80.30;;;;;;4937274;29;20040;-89
2023/04/26 09:57:54;;;;;;;32.80;6.13;;;12.70;79.20;;;;;;4937006;29;20059;-89
2023/04/26 10:00:20;;;;;;;13.52;5.03;;;12.80;76.50;;;;;;4936180;29;20127;-89
2023/04/26 10:02:46;;;;;;;9.98;4.57;;;12.80;75.70;;;;;;4937964;29;20062;-88
2023/04/26 10:05:12;;;;;;;10.95;4.00;;;13.00;76.10;;;;;;4936724;29;20027;-89
2023/04/26 10:07:40;;;;;;;10.50;4.93;;;13.20;74.90;;;;;;4937111;29;20101;-88
2023/04/26 10:10:06;;;;;;;13.05;4.43;;;13.40;73.80;;;;;;4937899;29;20024;-89
2023/04/26 10:12:33;;;;;;;12.43;4.47;;;13.40;73.20;;;;;;4936352;29;20036;-88
2023/04/26 10:14:59;;;;;;;8.60;4.40;;;13.40;72.30;;;;;;4936331;29;20039;-89
2023/04/26 10:17:24;;;;;;;10.57;4.70;;;13.60;72.10;;;;;;4936878;29;20055;-88
2023/04/26 10:19:57;;;;;;;14.23;5.07;;;13.70;71.50;;;;;;4936983;29;20500;-88
2023/04/26 10:22:27;;;;;;;10.10;4.40;;;13.90;70.60;;;;;;4937466;29;20035;-88
2023/04/26 10:24:54;;;;;;;10.00;4.40;;;14.00;69.10;;;;;;4921022;29;20087;-89
2023/04/26 10:27:42;;;;;;;15.45;5.05;;;14.00;67.80;;;;;;4936938;29;20035;-88
2023/04/26 10:30:11;;;;;;;8.35;4.38;;;14.00;67.30;;;;;;4920893;29;20493;-89
2023/04/26 10:32:51;;;;;;;9.15;4.20;;;14.00;67.50;;;;;;4936440;29;20031;-88
2023/04/26 10:35:21;;;;;;;;;;;13.90;67.60;;;;;;4936630;29;20032;-89
2023/04/26 10:37:59;;;;;;;12.98;4.30;;;13.90;66.40;;;;;;4934799;29;19919;-91
2023/04/26 10:40:33;;;;;;;9.38;4.70;;;13.70;66.00;;;;;;4935576;29;20039;-89
2023/04/26 10:43:12;;;;;;;9.20;4.30;;;13.60;65.90;;;;;;4935808;29;20036;-88
2023/04/26 10:45:39;;;;;;;6.70;4.20;;;13.50;65.40;;;;;;4934289;29;20115;-89
2023/04/26 10:48:16;;;;;;;14.98;4.90;;;13.30;65.10;;;;;;4936453;29;20023;-89
2023/04/26 10:51:00;;;;;;;13.38;5.15;;;13.10;65.10;;;;;;4935149;29;20027;-90
2023/04/26 10:53:30;;;;;;;12.32;5.10;;;12.80;65.10;;;;;;4936173;29;20031;-90
2023/04/26 10:55:56;;;;;;;9.43;4.80;;;12.60;65.60;;;;;;4936154;29;20473;-89
2023/04/26 10:58:29;;;;;;;11.95;4.40;;;12.50;65.90;;;;;;4935641;29;20074;-89
2023/04/26 11:01:04;;;;;;;10.27;4.53;;;12.30;66.60;;;;;;4916570;29;20024;-89
2023/04/26 11:03:30;;;;;;;12.05;4.32;;;12.10;67.10;;;;;;4930718;29;20469;-89
2023/04/26 11:05:56;;;;;;;9.20;4.65;;;11.90;67.10;;;;;;4934319;29;20050;-88
2023/04/26 11:08:30;;;;;;;8.75;4.40;;;11.80;67.30;;;;;;4932620;29;20085;-88
2023/04/26 11:11:02;;;;;;;9.65;4.40;;;11.70;67.70;;;;;;4933367;29;20047;-89
2023/04/26 11:13:40;;;;;;;13.30;4.22;;;11.50;67.90;;;;;;4918993;29;20059;-89
2023/04/26 11:16:14;;;;;;;11.13;4.78;;;11.40;68.70;;;;;;4935217;29;20034;-89
2023/04/26 11:18:44;;;;;;;10.20;4.38;;;11.40;69.30;;;;;;4935466;29;20140;-88
2023/04/26 11:21:14;;;;;;;12.05;4.10;;;11.40;69.80;;;;;;4932620;29;20091;-89
2023/04/26 11:23:39;;;;;;;10.80;4.20;;;11.40;70.00;;;;;;4934818;29;20024;-90
2023/04/26 11:26:07;;;;;;;9.85;4.38;;;11.40;70.30;;;;;;4934405;29;20028;-88
2023/04/26 11:28:34;;;;;;;13.77;4.45;;;11.30;70.40;;;;;;4934105;29;20453;-88
2023/04/26 11:31:03;;;;;;;11.20;3.75;;;11.20;70.40;;;;;;4917752;29;20020;-88
2023/04/26 11:33:29;;;;;;;9.38;4.45;;;11.10;70.40;;;;;;4931339;29;20038;-88
2023/04/26 11:35:57;;;;;;;14.52;4.72;;;11.10;70.60;;;;;;4933900;29;20393;-88
2023/04/26 11:38:27;;;;;;;8.00;4.07;;;11.10;70.60;;;;;;4934666;29;20039;-89
2023/04/26 11:41:01;;;;;;;15.00;4.43;;;11.10;70.60;;;;;;4913377;29;20024;-89
2023/04/26 11:43:37;;;;;;;8.38;4.07;;;11.10;70.90;;;;;;4917879;29;20087;-89
2023/04/26 11:46:04;;;;;;;11.15;4.75;;;11.00;71.00;;;;;;4917530;29;20082;-91
2023/04/26 11:48:30;;;;;;;10.85;4.05;;;11.00;71.00;;;;;;4921503;29;20096;-95
2023/04/26 11:51:00;;;;;;;9.88;4.82;;;11.00;71.00;;;;;;4935494;29;20385;-95
2023/04/26 11:53:40;;;;;;;7.50;4.40;;;11.00;71.10;;;;;;4936717;29;20097;-96
2023/04/26 11:56:14;;;;;;;13.15;4.68;;;10.90;70.60;;;;;;4936702;29;20511;-95
2023/04/26 11:58:42;;;;;;;13.27;4.57;;;10.80;70.20;;;;;;4936082;29;20046;-95
2023/04/26 12:01:08;;;;;;;12.32;4.90;;;10.80;70.20;;;;;;4934810;29;20066;-94
2023/04/26 12:03:36;;;;;;;10.38;4.82;;;10.70;70.10;;;;;;4934544;29;20442;-94
2023/04/26 12:06:02;;;;;;;9.68;4.55;;;10.80;70.20;;;;;;4934653;29;20035;-95
2023/04/26 12:08:29;;;;;;;15.77;4.80;;;10.80;70.30;;;;;;4935012;29;20028;-94
2023/04/26 12:11:01;;;;;;;11.55;4.85;;;10.70;70.40;;;;;;4934911;29;20135;-94
2023/04/26 12:13:31;;;;;;;13.57;5.40;;;10.80;70.50;;;;;;4936260;29;20028;-93
2023/04/26 12:15:57;;;;;;;12.63;5.93;;;10.80;70.80;;;;;;4949904;29;20016;-95
2023/04/26 12:18:30;;;;;;;16.85;5.68;;;10.80;70.70;;;;;;4944221;29;20043;-94
2023/04/26 12:21:00;;;;;;;14.45;5.72;;;10.80;70.50;;;;;;4937808;29;20036;-95
2023/04/26 12:23:26;;;;;;;12.50;4.47;;;10.80;70.30;;;;;;4921545;29;20030;-94
2023/04/26 12:25:59;;;;;;;11.48;5.22;;;10.80;70.10;;;;;;4944250;29;20028;-94
2023/04/26 12:28:24;;;;;;;13.10;5.43;;;10.70;69.60;;;;;;4925731;29;20040;-94
2023/04/26 12:30:50;;;;;;;11.02;5.15;;;10.70;69.50;;;;;;4929486;29;20035;-95
2023/04/26 12:33:18;;;;;;;11.98;5.15;;;10.70;69.60;;;;;;4948955;29;20041;-95
2023/04/26 12:35:45;;;;;;;17.60;6.10;;;10.80;69.40;;;;;;4950334;29;20024;-94
2023/04/26 12:38:10;;;;;;;16.00;5.60;;;10.80;69.30;;;;;;4932917;29;20043;-95
2023/04/26 12:40:36;;;;;;;12.48;5.60;;;10.80;69.30;;;;;;4947894;29;20027;-95
2023/04/26 12:43:02;;;;;;;14.65;5.18;;;10.90;69.20;;;;;;4947333;29;20036;-96
2023/04/26 12:45:28;;;;;;;12.20;4.88;;;10.90;68.90;;;;;;4943230;29;20023;-95
2023/04/26 12:47:53;;;;;;;12.95;4.95;;;10.90;68.70;;;;;;4926851;29;20446;-95
2023/04/26 12:50:20;;;;;;;12.02;5.55;;;10.90;68.80;;;;;;4945499;29;20614;-94